Time;durP1;ratioP1;P1;durP2;ratioP2;P2;SDS_P1;SDS_P2;PMS_P1;PMS_P2;Temp;Humidity;BMP_temperature;BMP_pressure;BME280_temperature;BME280_humidity;BME280_pressure;Samples;Min_cycle;Max_cycle;Signal;HPM_P1;HPM_P2
2023/07/11 00:00:05;;;;;;;4.47;3.57;;;20.10;99.90;;;;;;5050824;28;20463;-69
2023/07/11 00:02:31;;;;;;;5.63;4.17;;;20.00;99.90;;;;;;5050380;28;20487;-69
2023/07/11 00:04:59;;;;;;;5.83;4.40;;;20.00;99.90;;;;;;5050187;28;20517;-68
2023/07/11 00:07:26;;;;;;;5.23;3.80;;;20.00;99.90;;;;;;5050234;28;20979;-69
2023/07/11 00:09:52;;;;;;;7.70;3.73;;;19.90;99.90;;;;;;5050827;28;20472;-70
2023/07/11 00:12:20;;;;;;;5.00;4.60;;;19.90;99.90;;;;;;5050511;28;20837;-68
2023/07/11 00:14:48;;;;;;;7.70;4.20;;;19.90;99.90;;;;;;5041679;28;20791;-69
2023/07/11 00:17:14;;;;;;;5.27;4.27;;;19.80;99.90;;;;;;5050560;28;20471;-69
2023/07/11 00:19:50;;;;;;;7.13;5.03;;;19.80;99.90;;;;;;5050129;28;20525;-69
2023/07/11 00:22:17;;;;;;;5.87;4.20;;;19.80;99.90;;;;;;5050229;28;20471;-69
2023/07/11 00:24:44;;;;;;;4.80;4.33;;;19.70;99.90;;;;;;5049608;28;21069;-70
2023/07/11 00:27:12;;;;;;;5.40;4.03;;;19.70;99.90;;;;;;5050318;28;20486;-70
2023/07/11 00:29:39;;;;;;;6.07;4.10;;;19.70;99.90;;;;;;5050142;28;20462;-70
2023/07/11 00:32:08;;;;;;;5.60;4.70;;;19.70;99.90;;;;;;5050326;28;20467;-69
2023/07/11 00:34:35;;;;;;;4.60;4.10;;;19.60;99.90;;;;;;5049397;28;20973;-69
2023/07/11 00:37:03;;;;;;;4.77;3.83;;;19.50;99.90;;;;;;5050242;28;20470;-68
2023/07/11 00:39:32;;;;;;;5.80;4.77;;;19.60;99.90;;;;;;5049933;28;20479;-69
2023/07/11 00:41:58;;;;;;;5.93;4.10;;;19.50;99.90;;;;;;5050222;28;20479;-69
2023/07/11 00:44:26;;;;;;;5.40;4.37;;;19.40;99.90;;;;;;5049470;28;20466;-69
2023/07/11 00:46:53;;;;;;;7.43;4.63;;;19.40;99.90;;;;;;5050150;28;20470;-69
2023/07/11 00:49:23;;;;;;;5.53;4.90;;;19.40;99.90;;;;;;5050192;28;21059;-69
2023/07/11 00:51:53;;;;;;;5.80;4.53;;;19.40;99.90;;;;;;5050032;28;20463;-69
2023/07/11 00:54:25;;;;;;;7.13;4.50;;;19.30;99.90;;;;;;5049711;28;20988;-69
2023/07/11 00:56:52;;;;;;;5.23;4.67;;;19.30;99.90;;;;;;5050077;28;20554;-69
2023/07/11 00:59:21;;;;;;;6.50;4.57;;;19.30;99.90;;;;;;5050031;28;20514;-69
2023/07/11 01:01:59;;;;;;;5.70;4.70;;;19.20;99.90;;;;;;5049691;28;20482;-69
2023/07/11 01:04:28;;;;;;;6.10;4.90;;;19.20;99.90;;;;;;5049290;28;20463;-69
2023/07/11 01:06:54;;;;;;;5.67;5.13;;;19.20;99.90;;;;;;5049862;28;20839;-70
2023/07/11 01:09:21;;;;;;;4.83;4.30;;;19.10;99.90;;;;;;5049952;28;20487;-69
2023/07/11 01:11:56;;;;;;;5.90;4.97;;;19.10;99.90;;;;;;5049749;28;20456;-68
2023/07/11 01:14:23;;;;;;;6.27;5.30;;;19.10;99.90;;;;;;5049443;28;20466;-69
2023/07/11 01:16:50;;;;;;;9.87;5.63;;;19.10;99.90;;;;;;5049676;28;20514;-69
2023/07/11 01:19:16;;;;;;;8.13;5.23;;;19.10;99.90;;;;;;5049804;28;20901;-68
2023/07/11 01:21:44;;;;;;;8.27;5.50;;;19.00;99.90;;;;;;5049436;28;20480;-69
2023/07/11 01:24:12;;;;;;;6.70;5.60;;;19.00;99.90;;;;;;5049273;28;20476;-68
2023/07/11 01:26:38;;;;;;;5.70;5.03;;;19.00;99.90;;;;;;5050507;28;20491;-69
2023/07/11 01:29:06;;;;;;;7.00;5.87;;;18.90;99.90;;;;;;5053566;28;20486;-70
2023/07/11 01:31:33;;;;;;;6.33;4.90;;;18.90;99.90;;;;;;5053036;28;20468;-69
2023/07/11 01:34:00;;;;;;;7.50;5.53;;;18.90;99.90;;;;;;5052810;28;21026;-69
2023/07/11 01:36:27;;;;;;;7.77;5.77;;;18.80;99.90;;;;;;5053282;28;20473;-68
2023/07/11 01:38:56;;;;;;;6.30;4.90;;;18.90;99.90;;;;;;5053341;28;21050;-69
2023/07/11 01:41:23;;;;;;;5.93;5.03;;;18.80;99.90;;;;;;5053621;28;20482;-70
2023/07/11 01:43:50;;;;;;;6.73;5.43;;;18.80;99.90;;;;;;5052384;28;20468;-69
2023/07/11 01:46:17;;;;;;;5.63;4.73;;;18.70;99.90;;;;;;5053347;28;20456;-69
2023/07/11 01:48:44;;;;;;;5.87;5.10;;;18.70;99.90;;;;;;5052991;28;20989;-69
2023/07/11 01:51:10;;;;;;;6.50;5.27;;;18.70;99.90;;;;;;5053309;28;20464;-69
2023/07/11 01:53:37;;;;;;;6.90;5.27;;;18.60;99.90;;;;;;5052588;28;20462;-69
2023/07/11 01:56:06;;;;;;;5.53;5.00;;;18.60;99.90;;;;;;5052987;28;20461;-69
2023/07/11 01:58:34;;;;;;;7.80;5.60;;;18.50;99.90;;;;;;5052739;28;20480;-69
2023/07/11 02:01:01;;;;;;;6.23;5.33;;;18.50;99.90;;;;;;5052996;28;20545;-68
2023/07/11 02:03:28;;;;;;;8.37;5.50;;;18.50;99.90;;;;;;5052648;28;20468;-69
2023/07/11 02:05:55;;;;;;;9.57;5.10;;;18.40;99.90;;;;;;5044324;28;20466;-68
2023/07/11 02:08:22;;;;;;;8.53;5.63;;;18.40;99.90;;;;;;5052889;28;20867;-69
2023/07/11 02:10:49;;;;;;;7.57;5.57;;;18.40;99.90;;;;;;5052613;28;20464;-69
2023/07/11 02:13:18;;;;;;;8.00;6.17;;;18.40;99.90;;;;;;5052558;28;20441;-69
2023/07/11 02:15:44;;;;;;;6.33;5.63;;;18.30;99.90;;;;;;5052115;28;20489;-69
2023/07/11 02:18:12;;;;;;;7.67;5.60;;;18.30;99.90;;;;;;5052681;28;20481;-69
2023/07/11 02:20:43;;;;;;;6.90;5.83;;;18.30;99.90;;;;;;5052384;28;20490;-69
2023/07/11 02:23:10;;;;;;;5.97;5.37;;;18.30;99.90;;;;;;5052395;28;20476;-68
2023/07/11 02:25:37;;;;;;;9.90;5.70;;;18.20;99.90;;;;;;5051865;28;20487;-70
2023/07/11 02:28:04;;;;;;;9.27;6.20;;;18.20;99.90;;;;;;5052682;28;20482;-69
2023/07/11 02:30:32;;;;;;;7.90;6.13;;;18.20;99.90;;;;;;5052507;28;20467;-69
2023/07/11 02:32:59;;;;;;;8.97;6.50;;;18.20;99.90;;;;;;5052277;28;21279;-69
2023/07/11 02:35:25;;;;;;;6.80;6.10;;;18.10;99.90;;;;;;5051898;28;20470;-69
2023/07/11 02:37:52;;;;;;;8.53;6.50;;;18.10;99.90;;;;;;5051561;28;23502;-69
2023/07/11 02:40:19;;;;;;;8.10;6.43;;;18.10;99.90;;;;;;5052333;28;20858;-69
2023/07/11 02:42:46;;;;;;;6.60;5.87;;;18.10;99.90;;;;;;5051824;28;20563;-69
2023/07/11 02:45:14;;;;;;;7.13;6.43;;;18.00;99.90;;;;;;5051649;28;20465;-68
2023/07/11 02:47:42;;;;;;;8.10;6.70;;;18.00;99.90;;;;;;5051751;28;20498;-69
2023/07/11 02:50:09;;;;;;;8.40;6.47;;;18.00;99.90;;;;;;5052013;28;20473;-69
2023/07/11 02:52:36;;;;;;;6.93;6.20;;;18.00;99.90;;;;;;5051852;28;20469;-68
2023/07/11 02:55:03;;;;;;;8.57;6.70;;;18.00;99.90;;;;;;5051560;28;20469;-70
2023/07/11 02:57:29;;;;;;;8.37;6.60;;;18.00;99.90;;;;;;5051882;28;20511;-69
2023/07/11 02:59:56;;;;;;;10.40;7.17;;;17.90;99.90;;;;;;5051686;28;20471;-69
2023/07/11 03:02:23;;;;;;;8.47;6.90;;;17.90;99.90;;;;;;5051643;28;20482;-68
2023/07/11 03:04:51;;;;;;;7.30;6.60;;;17.90;99.90;;;;;;5051047;28;20469;-69
2023/07/11 03:07:18;;;;;;;9.07;6.50;;;17.90;99.90;;;;;;5051848;28;20485;-68
2023/07/11 03:09:45;;;;;;;8.47;7.20;;;17.90;99.90;;;;;;5051361;28;20953;-69
2023/07/11 03:12:11;;;;;;;7.83;6.60;;;17.90;99.90;;;;;;5051772;28;20827;-69
2023/07/11 03:14:38;;;;;;;8.47;6.90;;;17.90;99.90;;;;;;5051024;28;20502;-69
2023/07/11 03:17:05;;;;;;;10.17;6.43;;;17.80;99.90;;;;;;5051597;28;20477;-69
2023/07/11 03:19:32;;;;;;;6.87;5.93;;;17.80;99.90;;;;;;5051468;28;20484;-69
2023/07/11 03:22:00;;;;;;;8.67;6.50;;;17.80;99.90;;;;;;5051010;28;20483;-72
2023/07/11 03:24:26;;;;;;;8.30;6.00;;;17.80;99.90;;;;;;5050913;28;20892;-69
2023/07/11 03:26:53;;;;;;;6.77;6.07;;;17.80;99.90;;;;;;5051113;28;20493;-69
2023/07/11 03:29:20;;;;;;;6.30;5.67;;;17.80;99.90;;;;;;5051311;28;20491;-69
2023/07/11 03:31:46;;;;;;;6.00;5.40;;;17.80;99.90;;;;;;5069178;28;20448;-69
2023/07/11 03:34:13;;;;;;;8.37;6.57;;;17.70;99.90;;;;;;5071007;28;20839;-69
2023/07/11 03:36:40;;;;;;;6.00;5.40;;;17.70;99.90;;;;;;5054574;28;20484;-69
2023/07/11 03:39:09;;;;;;;6.50;5.47;;;17.60;99.90;;;;;;5051374;28;20487;-69
2023/07/11 03:41:36;;;;;;;4.83;4.40;;;17.60;99.90;;;;;;5051166;28;20463;-69
2023/07/11 03:44:03;;;;;;;6.10;5.50;;;17.60;99.90;;;;;;5049880;28;20483;-69
2023/07/11 03:46:30;;;;;;;7.13;5.37;;;17.60;99.90;;;;;;5051074;28;20225;-69
2023/07/11 03:48:59;;;;;;;6.53;5.70;;;17.60;99.90;;;;;;5050248;28;20508;-68
2023/07/11 03:51:26;;;;;;;5.90;5.30;;;17.60;99.90;;;;;;5050898;28;20965;-69
2023/07/11 03:53:52;;;;;;;5.00;4.50;;;17.70;99.90;;;;;;5049414;28;20457;-68
2023/07/11 03:56:21;;;;;;;6.23;5.60;;;17.60;99.90;;;;;;5050863;28;20461;-69
2023/07/11 03:58:47;;;;;;;8.17;5.60;;;17.70;99.90;;;;;;5050763;28;20476;-69
2023/07/11 04:01:14;;;;;;;7.60;4.87;;;17.60;99.90;;;;;;5050744;28;20467;-69
2023/07/11 04:03:43;;;;;;;6.27;4.67;;;17.60;99.90;;;;;;5050475;28;21274;-69
2023/07/11 04:06:10;;;;;;;6.67;5.13;;;17.70;99.90;;;;;;5050705;28;20467;-69
2023/07/11 04:08:36;;;;;;;6.47;4.43;;;17.70;99.90;;;;;;5050829;28;20485;-69
2023/07/11 04:11:03;;;;;;;7.23;4.93;;;17.70;99.90;;;;;;5050683;28;20957;-69
2023/07/11 04:13:32;;;;;;;6.47;5.83;;;17.70;99.90;;;;;;5050549;28;20455;-69
2023/07/11 04:15:59;;;;;;;5.87;5.27;;;17.80;99.90;;;;;;5050052;28;20516;-69
2023/07/11 04:18:26;;;;;;;6.03;4.70;;;17.80;99.90;;;;;;5050487;28;20484;-68
2023/07/11 04:20:52;;;;;;;5.40;4.70;;;17.80;99.90;;;;;;5050277;28;20461;-73
2023/07/11 04:23:19;;;;;;;5.97;4.63;;;17.90;99.90;;;;;;5050523;28;20485;-69
2023/07/11 04:25:46;;;;;;;5.73;4.70;;;17.90;99.90;;;;;;5052004;28;20467;-70
2023/07/11 04:28:12;;;;;;;5.63;5.03;;;17.90;99.90;;;;;;5050575;28;20497;-70
2023/07/11 04:30:40;;;;;;;6.10;4.80;;;17.90;99.90;;;;;;5050407;28;20461;-68
2023/07/11 04:33:07;;;;;;;6.33;4.60;;;18.00;99.90;;;;;;5049231;28;20468;-70
2023/07/11 04:35:34;;;;;;;5.33;4.83;;;18.00;99.90;;;;;;5049591;28;20959;-70
2023/07/11 04:38:01;;;;;;;6.07;4.77;;;18.00;99.90;;;;;;5049733;28;20492;-69
2023/07/11 04:40:28;;;;;;;6.27;5.00;;;18.10;99.90;;;;;;5064624;28;20515;-69
2023/07/11 04:42:58;;;;;;;6.67;5.43;;;18.10;99.90;;;;;;5070068;28;20487;-70
2023/07/11 04:45:24;;;;;;;5.23;4.73;;;18.10;99.90;;;;;;5069729;28;20470;-71
2023/07/11 04:47:52;;;;;;;4.93;4.43;;;18.20;99.90;;;;;;5070527;28;20541;-68
2023/07/11 04:50:19;;;;;;;5.70;5.10;;;18.20;99.90;;;;;;5070351;28;20486;-68
2023/07/11 04:52:46;;;;;;;4.80;4.27;;;18.20;99.90;;;;;;5070322;28;20461;-69
2023/07/11 04:55:13;;;;;;;5.77;4.53;;;18.30;99.90;;;;;;5070081;28;20472;-71
2023/07/11 04:57:39;;;;;;;5.57;4.73;;;18.30;99.90;;;;;;5070402;28;20483;-70
2023/07/11 05:00:07;;;;;;;5.77;4.90;;;18.30;99.90;;;;;;5051293;28;21324;-70
2023/07/11 05:02:35;;;;;;;5.23;4.73;;;18.40;99.90;;;;;;5062876;28;20489;-70
2023/07/11 05:05:03;;;;;;;5.23;4.73;;;18.40;99.90;;;;;;5053645;28;20463;-71
2023/07/11 05:07:29;;;;;;;7.60;4.87;;;18.40;99.90;;;;;;5053945;28;21010;-71
2023/07/11 05:09:56;;;;;;;5.23;4.80;;;18.50;99.90;;;;;;5053977;28;20458;-70
2023/07/11 05:12:23;;;;;;;8.13;5.10;;;18.50;99.90;;;;;;5067136;28;20466;-68
2023/07/11 05:14:49;;;;;;;5.43;4.90;;;18.60;99.90;;;;;;5073581;28;20461;-70
2023/07/11 05:17:17;;;;;;;4.93;4.47;;;18.60;99.90;;;;;;5069817;28;20462;-69
2023/07/11 05:19:44;;;;;;;5.03;4.30;;;18.70;99.90;;;;;;5062526;28;20465;-71
2023/07/11 05:22:12;;;;;;;8.47;5.67;;;18.80;99.90;;;;;;5053584;28;20469;-69
2023/07/11 05:24:39;;;;;;;7.80;5.43;;;18.90;99.90;;;;;;5060461;28;20468;-73
2023/07/11 05:27:05;;;;;;;7.40;5.67;;;19.00;99.90;;;;;;5063029;28;20463;-68
2023/07/11 05:29:33;;;;;;;7.53;4.70;;;19.00;99.90;;;;;;5053753;28;20486;-69
2023/07/11 05:32:00;;;;;;;5.80;5.20;;;19.10;99.90;;;;;;5071674;28;20463;-69
2023/07/11 05:34:26;;;;;;;5.43;4.93;;;19.20;99.90;;;;;;5073054;28;20466;-69
2023/07/11 05:36:53;;;;;;;5.23;4.73;;;19.20;99.90;;;;;;5065206;28;20477;-69
2023/07/11 05:39:21;;;;;;;5.63;4.90;;;19.40;99.90;;;;;;5073237;28;20488;-69
2023/07/11 05:41:51;;;;;;;5.70;5.20;;;19.50;99.90;;;;;;5073465;28;20469;-69
2023/07/11 05:44:18;;;;;;;5.30;4.80;;;19.60;99.90;;;;;;5056949;28;20481;-69
2023/07/11 05:46:45;;;;;;;5.70;5.20;;;19.70;99.90;;;;;;5073484;28;20462;-68
2023/07/11 05:49:12;;;;;;;6.40;5.37;;;19.80;99.90;;;;;;5072925;28;20473;-69
2023/07/11 05:51:39;;;;;;;5.27;4.73;;;19.90;99.90;;;;;;5073257;28;20466;-68
2023/07/11 05:54:06;;;;;;;6.30;5.67;;;20.10;99.90;;;;;;5060983;28;20456;-69
2023/07/11 05:56:34;;;;;;;7.53;6.00;;;20.20;99.90;;;;;;5053089;28;20829;-69
2023/07/11 05:59:01;;;;;;;5.97;5.20;;;20.30;99.90;;;;;;5052924;28;20479;-69
2023/07/11 06:01:29;;;;;;;6.67;4.70;;;20.40;99.90;;;;;;5052911;28;20465;-69
2023/07/11 06:04:05;;;;;;;4.60;3.97;;;20.50;99.90;;;;;;5052176;28;21002;-68
2023/07/11 06:06:44;;;;;;;7.97;4.60;;;20.60;99.90;;;;;;5053066;28;20474;-71
2023/07/11 06:09:13;;;;;;;4.63;4.10;;;20.70;99.90;;;;;;5052059;28;20491;-70
2023/07/11 06:11:42;;;;;;;5.00;4.10;;;20.80;99.90;;;;;;5059204;28;20464;-71
2023/07/11 06:14:09;;;;;;;4.50;4.10;;;21.00;99.90;;;;;;5053008;28;20460;-71
2023/07/11 06:16:36;;;;;;;4.40;4.00;;;21.10;99.90;;;;;;5067075;28;20491;-71
2023/07/11 06:19:04;;;;;;;6.20;4.57;;;21.20;99.90;;;;;;5072574;28;20486;-71
2023/07/11 06:21:31;;;;;;;4.23;3.90;;;21.40;99.90;;;;;;5072670;28;20518;-70
2023/07/11 06:23:58;;;;;;;4.77;3.73;;;21.50;99.90;;;;;;5054620;28;20484;-70
2023/07/11 06:26:25;;;;;;;4.67;3.83;;;21.60;99.90;;;;;;5052621;28;20460;-71
2023/07/11 06:28:53;;;;;;;5.73;3.80;;;21.80;99.90;;;;;;5052254;28;20987;-69
2023/07/11 06:31:19;;;;;;;4.30;3.80;;;21.90;99.90;;;;;;5052498;28;20471;-69
2023/07/11 06:33:46;;;;;;;5.37;3.90;;;22.10;99.90;;;;;;5051917;28;20463;-69
2023/07/11 06:36:13;;;;;;;4.40;4.00;;;22.30;99.90;;;;;;5047937;28;20459;-69
2023/07/11 06:38:40;;;;;;;4.00;3.67;;;22.40;99.90;;;;;;5047989;28;20563;-70
2023/07/11 06:41:07;;;;;;;4.60;3.90;;;22.50;99.90;;;;;;5051092;28;20468;-69
2023/07/11 06:43:33;;;;;;;3.90;3.43;;;22.70;99.90;;;;;;5051725;28;20527;-69
2023/07/11 06:46:03;;;;;;;3.63;3.33;;;22.80;99.90;;;;;;5051537;28;20473;-70
2023/07/11 06:48:31;;;;;;;4.07;3.50;;;22.80;99.90;;;;;;5071680;28;20481;-70
2023/07/11 06:51:00;;;;;;;4.50;3.53;;;22.90;99.90;;;;;;5071191;28;20462;-69
2023/07/11 06:53:28;;;;;;;3.90;3.60;;;22.90;99.90;;;;;;5071542;28;20453;-70
2023/07/11 06:55:56;;;;;;;3.93;3.57;;;23.00;99.90;;;;;;5071110;28;20462;-70
2023/07/11 06:58:23;;;;;;;5.13;3.77;;;23.10;99.90;;;;;;5071677;28;20831;-69
2023/07/11 07:00:54;;;;;;;3.63;3.00;;;23.20;99.90;;;;;;5071527;28;20874;-70
2023/07/11 07:03:23;;;;;;;4.17;3.77;;;23.40;99.90;;;;;;5051575;28;20513;-69
2023/07/11 07:05:51;;;;;;;4.53;3.80;;;23.60;99.90;;;;;;5051175;28;20964;-70
2023/07/11 07:08:20;;;;;;;3.70;3.40;;;23.80;99.90;;;;;;5051221;28;20482;-69
2023/07/11 07:10:47;;;;;;;3.77;3.20;;;24.00;99.90;;;;;;5051249;28;20477;-70
2023/07/11 07:13:15;;;;;;;4.20;3.80;;;24.20;99.90;;;;;;5069862;28;20455;-70
2023/07/11 07:15:42;;;;;;;4.90;3.97;;;24.30;99.90;;;;;;5070901;28;20820;-69
2023/07/11 07:18:08;;;;;;;3.60;3.30;;;24.40;99.90;;;;;;5070808;28;20479;-70
2023/07/11 07:20:37;;;;;;;4.00;3.63;;;24.60;99.90;;;;;;5071087;28;20474;-69
2023/07/11 07:23:05;;;;;;;4.60;3.60;;;24.60;99.90;;;;;;5070726;28;20869;-71
2023/07/11 07:25:31;;;;;;;4.20;3.80;;;24.70;99.90;;;;;;5057478;28;20469;-70
2023/07/11 07:27:58;;;;;;;4.33;3.50;;;24.70;99.90;;;;;;5059076;28;20886;-71
2023/07/11 07:30:25;;;;;;;4.00;3.70;;;24.80;99.90;;;;;;5070889;28;20489;-69
2023/07/11 07:32:52;;;;;;;3.40;3.10;;;24.90;99.90;;;;;;5070830;28;20459;-70
2023/07/11 07:35:18;;;;;;;5.33;3.63;;;25.00;99.90;;;;;;5070271;28;20464;-70
2023/07/11 07:37:46;;;;;;;5.40;3.60;;;25.10;99.90;;;;;;5064850;28;20477;-70
2023/07/11 07:40:14;;;;;;;5.00;3.93;;;25.20;99.90;;;;;;5052024;28;20462;-70
2023/07/11 07:42:40;;;;;;;4.20;3.73;;;25.30;99.90;;;;;;5070808;28;20493;-70
2023/07/11 07:45:08;;;;;;;4.50;4.10;;;25.40;99.90;;;;;;5069699;28;20476;-70
2023/07/11 07:47:35;;;;;;;4.23;3.83;;;25.40;99.90;;;;;;5070538;28;20481;-70
2023/07/11 07:50:02;;;;;;;4.20;3.80;;;25.60;99.90;;;;;;5070919;28;20480;-70
2023/07/11 07:52:28;;;;;;;3.77;3.47;;;25.60;99.90;;;;;;5070921;28;20831;-70
2023/07/11 07:54:56;;;;;;;4.53;4.00;;;25.80;99.90;;;;;;5069909;28;20454;-70
2023/07/11 07:57:23;;;;;;;4.10;3.70;;;25.80;99.90;;;;;;5070353;28;20470;-70
2023/07/11 07:59:50;;;;;;;6.27;4.00;;;25.90;99.90;;;;;;5070331;28;20457;-70
2023/07/11 08:02:16;;;;;;;4.20;3.80;;;26.00;99.90;;;;;;5070220;28;20469;-70
2023/07/11 08:04:43;;;;;;;4.00;3.70;;;26.00;99.90;;;;;;5069957;28;21131;-70
2023/07/11 08:07:10;;;;;;;4.80;3.90;;;26.20;99.90;;;;;;5060922;28;20489;-70
2023/07/11 08:09:36;;;;;;;4.60;4.20;;;26.30;99.90;;;;;;5050403;28;20832;-70
2023/07/11 08:12:09;;;;;;;4.53;4.10;;;26.40;99.90;;;;;;5050212;28;20842;-70
2023/07/11 08:14:37;;;;;;;4.47;4.07;;;26.50;99.90;;;;;;5062576;28;20985;-70
2023/07/11 08:17:04;;;;;;;4.23;3.83;;;26.60;99.90;;;;;;5070080;28;20492;-70
2023/07/11 08:19:31;;;;;;;4.80;4.17;;;26.80;99.90;;;;;;5070320;28;20513;-71
2023/07/11 08:21:58;;;;;;;4.10;3.80;;;26.90;99.90;;;;;;5054468;28;20483;-70
2023/07/11 08:24:25;;;;;;;5.40;4.40;;;26.90;99.90;;;;;;5060307;28;20474;-70
2023/07/11 08:26:52;;;;;;;4.63;3.90;;;27.00;99.80;;;;;;5070102;28;20459;-71
2023/07/11 08:29:20;;;;;;;4.20;3.83;;;27.10;99.90;;;;;;5069749;28;20836;-70
2023/07/11 08:31:47;;;;;;;4.73;4.20;;;27.10;99.90;;;;;;5056266;28;20459;-71
2023/07/11 08:34:13;;;;;;;4.23;3.60;;;27.30;99.90;;;;;;5049291;28;20460;-70
2023/07/11 08:36:40;;;;;;;4.47;4.07;;;27.30;99.90;;;;;;5049536;28;20464;-70
2023/07/11 08:39:07;;;;;;;5.60;4.40;;;27.40;99.90;;;;;;5058075;28;20494;-70
2023/07/11 08:41:40;;;;;;;4.80;4.40;;;27.40;99.90;;;;;;5045845;28;21007;-70
2023/07/11 08:44:12;;;;;;;4.70;3.83;;;27.50;99.90;;;;;;5068963;28;20490;-70
2023/07/11 08:46:45;;;;;;;4.93;4.43;;;27.60;99.90;;;;;;5069987;28;21003;-70
2023/07/11 08:49:19;;;;;;;4.50;4.10;;;27.60;99.90;;;;;;5069506;28;20478;-70
2023/07/11 08:51:51;;;;;;;6.00;4.20;;;27.80;99.90;;;;;;5069940;28;20463;-70
2023/07/11 08:54:22;;;;;;;4.77;4.37;;;28.00;99.90;;;;;;5069062;28;20455;-70
2023/07/11 08:56:51;;;;;;;5.13;4.63;;;28.00;99.90;;;;;;5069593;28;20458;-70
2023/07/11 08:59:24;;;;;;;5.00;3.90;;;28.20;99.90;;;;;;5069544;28;20482;-71
2023/07/11 09:01:58;;;;;;;4.30;3.90;;;28.30;99.90;;;;;;5069716;28;20459;-70
2023/07/11 09:04:26;;;;;;;4.67;4.03;;;28.40;99.90;;;;;;5069047;28;20486;-71
2023/07/11 09:06:56;;;;;;;4.60;4.20;;;28.40;99.90;;;;;;5069208;28;20462;-70
2023/07/11 09:09:24;;;;;;;4.30;3.90;;;28.40;99.90;;;;;;5069470;28;20514;-70
2023/07/11 09:12:04;;;;;;;4.57;4.17;;;28.50;99.90;;;;;;5069622;28;20873;-70
2023/07/11 09:14:38;;;;;;;4.67;4.20;;;28.60;99.90;;;;;;5058138;28;20452;-70
2023/07/11 09:17:24;;;;;;;4.27;3.90;;;28.60;99.90;;;;;;5048745;28;20793;-70
2023/07/11 09:20:07;;;;;;;5.50;4.60;;;28.70;99.90;;;;;;5049391;28;20466;-71
2023/07/11 09:22:48;;;;;;;4.83;4.37;;;28.80;99.90;;;;;;5068935;28;20459;-71
2023/07/11 09:25:20;;;;;;;4.60;4.20;;;28.90;99.90;;;;;;5068849;28;20485;-70
2023/07/11 09:27:49;;;;;;;4.80;4.40;;;28.90;99.90;;;;;;5069276;28;20923;-70
2023/07/11 09:30:20;;;;;;;5.23;4.73;;;29.10;99.90;;;;;;5069218;28;20978;-71
2023/07/11 09:32:49;;;;;;;5.17;4.47;;;29.20;99.20;;;;;;5069406;28;20459;-71
2023/07/11 09:35:28;;;;;;;5.07;4.57;;;29.30;99.90;;;;;;5068799;28;20478;-71
2023/07/11 09:38:01;;;;;;;4.53;4.03;;;29.30;99.90;;;;;;5068973;28;21024;-71
2023/07/11 09:40:35;;;;;;;5.20;4.70;;;29.30;99.90;;;;;;5069281;28;20459;-71
2023/07/11 09:43:04;;;;;;;4.67;4.27;;;29.40;99.90;;;;;;5068740;28;20973;-71
2023/07/11 09:45:34;;;;;;;4.80;4.30;;;29.50;99.90;;;;;;5056312;28;20487;-70
2023/07/11 09:48:07;;;;;;;4.20;3.80;;;29.50;99.90;;;;;;5050477;28;20483;-70
2023/07/11 09:50:45;;;;;;;5.10;4.60;;;29.60;99.90;;;;;;5052764;28;20463;-71
2023/07/11 09:53:16;;;;;;;5.80;4.03;;;29.80;98.00;;;;;;5052822;28;20463;-71
2023/07/11 09:55:43;;;;;;;5.00;4.27;;;29.90;98.30;;;;;;5052649;28;20465;-71
2023/07/11 09:58:15;;;;;;;5.43;4.50;;;30.00;99.10;;;;;;5052648;28;21013;-70
2023/07/11 10:00:46;;;;;;;4.60;4.20;;;30.10;99.10;;;;;;5052862;28;20494;-71
2023/07/11 10:03:18;;;;;;;5.43;4.80;;;30.10;99.50;;;;;;5052762;28;21023;-71
2023/07/11 10:05:48;;;;;;;5.07;4.33;;;30.10;99.00;;;;;;5044520;28;20475;-71
2023/07/11 10:08:18;;;;;;;5.50;4.37;;;30.20;98.60;;;;;;5052662;28;20483;-71
2023/07/11 10:10:46;;;;;;;5.67;4.33;;;30.20;99.80;;;;;;5052726;28;20467;-70
2023/07/11 10:13:15;;;;;;;5.07;4.60;;;30.40;99.90;;;;;;5052347;28;20946;-71
2023/07/11 10:15:42;;;;;;;7.13;4.70;;;30.50;97.40;;;;;;5052527;28;20466;-71
2023/07/11 10:18:19;;;;;;;4.30;3.93;;;30.50;97.40;;;;;;5052283;28;20487;-71
2023/07/11 10:20:47;;;;;;;5.30;4.80;;;30.70;99.90;;;;;;5044632;28;20471;-71
2023/07/11 10:23:18;;;;;;;4.37;3.97;;;30.80;97.60;;;;;;5053136;28;20886;-71
2023/07/11 10:25:45;;;;;;;4.97;4.47;;;31.00;99.90;;;;;;5052098;28;20626;-71
2023/07/11 10:28:24;;;;;;;6.83;4.43;;;31.00;99.90;;;;;;5052142;28;20840;-71
2023/07/11 10:30:52;;;;;;;5.00;4.60;;;31.00;98.70;;;;;;5052091;28;20474;-71
2023/07/11 10:33:24;;;;;;;5.13;4.60;;;31.00;99.40;;;;;;5051225;28;20887;-70
2023/07/11 10:35:54;;;;;;;4.90;4.47;;;31.00;99.60;;;;;;5044450;28;20460;-71
2023/07/11 10:38:26;;;;;;;4.87;4.10;;;31.10;96.50;;;;;;5051890;28;20483;-71
2023/07/11 10:40:56;;;;;;;4.60;4.20;;;31.20;96.20;;;;;;5052052;28;20463;-71
2023/07/11 10:43:26;;;;;;;5.33;4.83;;;31.30;98.10;;;;;;5038786;28;20475;-71
2023/07/11 10:45:58;;;;;;;4.83;4.40;;;31.30;97.50;;;;;;5049780;28;20479;-71
2023/07/11 10:48:36;;;;;;;4.97;4.57;;;31.30;99.40;;;;;;5050473;28;20871;-71
2023/07/11 10:51:07;;;;;;;5.40;4.90;;;31.40;98.20;;;;;;5050084;28;20463;-71
2023/07/11 10:53:39;;;;;;;5.07;4.60;;;31.50;99.70;;;;;;5050249;28;20463;-71
2023/07/11 10:56:13;;;;;;;5.87;4.50;;;31.40;98.80;;;;;;5050136;28;20494;-71
2023/07/11 10:58:40;;;;;;;4.80;4.13;;;31.40;96.80;;;;;;5050836;28;20514;-72
2023/07/11 11:01:15;;;;;;;5.00;4.60;;;31.30;96.40;;;;;;5050049;28;20475;-69
2023/07/11 11:03:46;;;;;;;4.53;4.13;;;31.10;96.80;;;;;;5050360;28;20459;-71
2023/07/11 11:06:27;;;;;;;4.83;4.43;;;31.10;99.60;;;;;;5050248;28;20468;-70
2023/07/11 11:09:02;;;;;;;6.00;4.63;;;31.10;99.20;;;;;;5050643;28;21041;-71
2023/07/11 11:11:42;;;;;;;5.93;4.60;;;31.30;97.90;;;;;;5050773;28;20473;-72
2023/07/11 11:14:13;;;;;;;5.30;4.90;;;31.40;99.10;;;;;;5049597;28;20470;-71
2023/07/11 11:16:52;;;;;;;5.23;4.50;;;31.60;99.70;;;;;;5050552;28;20464;-71
2023/07/11 11:19:30;;;;;;;6.70;5.10;;;31.70;99.30;;;;;;5049977;28;20501;-71
2023/07/11 11:22:05;;;;;;;4.40;4.10;;;31.80;98.60;;;;;;5050403;28;20474;-70
2023/07/11 11:24:46;;;;;;;5.47;4.97;;;32.00;98.90;;;;;;5049907;28;20541;-70
2023/07/11 11:27:25;;;;;;;5.30;4.80;;;32.10;98.50;;;;;;5050643;28;20479;-71
2023/07/11 11:29:58;;;;;;;5.17;4.50;;;32.20;98.10;;;;;;5051093;28;20470;-71
2023/07/11 11:32:31;;;;;;;5.13;4.73;;;32.20;98.60;;;;;;5050798;28;20475;-71
2023/07/11 11:35:22;;;;;;;5.33;4.83;;;32.10;96.60;;;;;;5050241;28;20517;-71
2023/07/11 11:38:05;;;;;;;5.23;4.40;;;31.90;95.90;;;;;;5050672;28;20479;-70
2023/07/11 11:40:37;;;;;;;5.50;5.10;;;31.80;95.80;;;;;;5049449;28;20506;-71
2023/07/11 11:43:07;;;;;;;5.30;4.80;;;31.50;96.10;;;;;;5049153;28;20732;-71
2023/07/11 11:45:34;;;;;;;5.23;4.60;;;31.50;97.50;;;;;;5045925;28;20491;-71
2023/07/11 11:48:03;;;;;;;6.90;5.00;;;31.50;97.30;;;;;;5048620;28;20515;-70
2023/07/11 11:50:36;;;;;;;5.77;5.37;;;31.20;97.00;;;;;;5049725;28;20505;-71
2023/07/11 11:53:22;;;;;;;5.70;5.13;;;31.10;97.50;;;;;;5054950;28;20459;-71
2023/07/11 11:55:54;;;;;;;5.30;4.80;;;31.10;97.40;;;;;;5064989;28;20914;-71
2023/07/11 11:58:22;;;;;;;5.13;4.53;;;31.10;97.20;;;;;;5069348;28;20482;-71
2023/07/11 12:00:51;;;;;;;5.13;4.70;;;31.30;98.80;;;;;;5069390;28;20459;-71
2023/07/11 12:03:27;;;;;;;4.57;3.80;;;31.40;98.60;;;;;;5062508;28;20468;-71
2023/07/11 12:05:56;;;;;;;6.10;5.50;;;31.20;98.00;;;;;;5045076;28;20490;-71
2023/07/11 12:08:35;;;;;;;5.30;4.90;;;31.00;97.60;;;;;;5049632;28;20484;-71
2023/07/11 12:11:31;;;;;;;4.80;4.40;;;30.90;97.80;;;;;;5050811;28;20542;-72
2023/07/11 12:14:24;;;;;;;5.00;4.50;;;31.20;99.20;;;;;;5048946;28;20463;-71
2023/07/11 12:16:53;;;;;;;5.33;4.83;;;31.50;97.10;;;;;;5049380;28;20586;-70
2023/07/11 12:19:29;;;;;;;6.03;4.70;;;31.90;97.50;;;;;;5049019;28;20834;-71
2023/07/11 12:22:05;;;;;;;4.87;4.40;;;32.10;98.10;;;;;;5041307;28;20455;-70
2023/07/11 12:24:46;;;;;;;4.50;4.20;;;32.20;96.70;;;;;;5065249;28;20482;-71
2023/07/11 12:27:47;;;;;;;4.77;4.30;;;32.30;96.20;;;;;;5049999;28;20854;-71
2023/07/11 12:30:43;;;;;;;6.00;5.10;;;32.50;96.70;;;;;;5061321;28;20466;-71
2023/07/11 12:33:35;;;;;;;5.60;5.00;;;32.80;96.90;;;;;;5054841;28;20466;-68
2023/07/11 12:36:44;;;;;;;5.13;4.53;;;32.90;94.70;;;;;;5043068;28;20541;-69
2023/07/11 12:39:45;;;;;;;4.97;4.57;;;33.00;95.50;;;;;;5048221;28;20480;-69
2023/07/11 12:42:39;;;;;;;4.87;4.47;;;33.20;95.40;;;;;;5026358;28;20892;-70
2023/07/11 12:45:15;;;;;;;5.03;4.63;;;33.30;96.00;;;;;;5036307;28;20507;-68
2023/07/11 12:47:44;;;;;;;5.50;5.00;;;33.30;93.40;;;;;;5045202;28;20567;-69
2023/07/11 12:50:21;;;;;;;4.50;4.10;;;33.30;95.70;;;;;;5048355;28;20476;-70
2023/07/11 12:52:58;;;;;;;6.60;5.20;;;33.50;93.50;;;;;;5048506;28;20485;-69
2023/07/11 12:55:28;;;;;;;5.30;4.80;;;33.60;92.20;;;;;;5047852;28;20620;-69
2023/07/11 12:57:55;;;;;;;4.77;4.30;;;33.70;94.70;;;;;;5047831;28;20907;-69
2023/07/11 13:00:24;;;;;;;4.67;4.27;;;33.80;93.90;;;;;;5048278;28;20836;-69